sensor_id;sensor_type;location;lat;lon;timestamp;temperature;humidity
68354;DHT22;55274;43.060;25.618;2023-02-01T00:01:32;2.60;99.90
68354;DHT22;55274;43.060;25.618;2023-02-01T00:03:58;2.60;99.90
68354;DHT22;55274;43.060;25.618;2023-02-01T00:06:24;2.60;99.90
68354;DHT22;55274;43.060;25.618;2023-02-01T00:08:52;2.60;99.90
68354;DHT22;55274;43.060;25.618;2023-02-01T00:11:19;2.60;99.90
68354;DHT22;55274;43.060;25.618;2023-02-01T00:13:45;2.50;99.90
68354;DHT22;55274;43.060;25.618;2023-02-01T00:16:13;2.60;99.90
68354;DHT22;55274;43.060;25.618;2023-02-01T00:18:42;2.50;99.90
68354;DHT22;55274;43.060;25.618;2023-02-01T00:21:09;2.50;99.90
68354;DHT22;55274;43.060;25.618;2023-02-01T00:23:36;2.50;99.90
68354;DHT22;55274;43.060;25.618;2023-02-01T00:26:05;2.50;99.90
68354;DHT22;55274;43.060;25.618;2023-02-01T00:28:31;2.50;99.90
68354;DHT22;55274;43.060;25.618;2023-02-01T00:30:58;2.50;99.90
68354;DHT22;55274;43.060;25.618;2023-02-01T00:33:24;2.50;99.90
68354;DHT22;55274;43.060;25.618;2023-02-01T00:35:50;2.50;99.90
68354;DHT22;55274;43.060;25.618;2023-02-01T00:38:16;2.40;99.90
68354;DHT22;55274;43.060;25.618;2023-02-01T00:40:42;2.40;99.90
68354;DHT22;55274;43.060;25.618;2023-02-01T00:43:08;2.40;99.90
68354;DHT22;55274;43.060;25.618;2023-02-01T00:45:33;2.40;99.90
68354;DHT22;55274;43.060;25.618;2023-02-01T00:47:59;2.30;99.90
68354;DHT22;55274;43.060;25.618;2023-02-01T00:50:25;2.40;99.90
68354;DHT22;55274;43.060;25.618;2023-02-01T00:52:50;2.30;99.90
68354;DHT22;55274;43.060;25.618;2023-02-01T00:55:16;2.30;99.90
68354;DHT22;55274;43.060;25.618;2023-02-01T00:57:42;2.30;99.90
68354;DHT22;55274;43.060;25.618;2023-02-01T01:00:08;2.30;99.90
68354;DHT22;55274;43.060;25.618;2023-02-01T01:02:34;2.30;99.90
68354;DHT22;55274;43.060;25.618;2023-02-01T01:05:00;2.40;99.90
68354;DHT22;55274;43.060;25.618;2023-02-01T01:07:25;2.40;99.90
68354;DHT22;55274;43.060;25.618;2023-02-01T01:09:52;2.40;99.90
68354;DHT22;55274;43.060;25.618;2023-02-01T01:12:18;2.50;99.90
68354;DHT22;55274;43.060;25.618;2023-02-01T01:14:45;2.50;99.90
68354;DHT22;55274;43.060;25.618;2023-02-01T01:17:11;2.50;99.90
68354;DHT22;55274;43.060;25.618;2023-02-01T01:19:37;2.50;99.90
68354;DHT22;55274;43.060;25.618;2023-02-01T01:22:02;2.60;99.90
68354;DHT22;55274;43.060;25.618;2023-02-01T01:24:28;2.60;99.90
68354;DHT22;55274;43.060;25.618;2023-02-01T01:26:54;2.60;99.90
68354;DHT22;55274;43.060;25.618;2023-02-01T01:29:20;2.60;99.90
68354;DHT22;55274;43.060;25.618;2023-02-01T01:31:45;2.70;99.90
68354;DHT22;55274;43.060;25.618;2023-02-01T01:34:11;2.70;99.90
68354;DHT22;55274;43.060;25.618;2023-02-01T01:36:37;2.70;99.90
68354;DHT22;55274;43.060;25.618;2023-02-01T01:39:02;2.70;99.90
68354;DHT22;55274;43.060;25.618;2023-02-01T01:41:31;2.70;99.90
68354;DHT22;55274;43.060;25.618;2023-02-01T01:44:04;2.70;99.90
68354;DHT22;55274;43.060;25.618;2023-02-01T01:46:35;2.70;99.90
68354;DHT22;55274;43.060;25.618;2023-02-01T01:49:12;2.80;99.90
68354;DHT22;55274;43.060;25.618;2023-02-01T01:51:51;2.80;99.90
68354;DHT22;55274;43.060;25.618;2023-02-01T01:54:38;2.80;99.90
68354;DHT22;55274;43.060;25.618;2023-02-01T01:57:11;2.80;99.90
68354;DHT22;55274;43.060;25.618;2023-02-01T01:59:39;2.80;99.90
68354;DHT22;55274;43.060;25.618;2023-02-01T02:02:06;2.80;99.90
68354;DHT22;55274;43.060;25.618;2023-02-01T02:04:33;2.90;99.90
68354;DHT22;55274;43.060;25.618;2023-02-01T02:07:02;2.90;99.90
68354;DHT22;55274;43.060;25.618;2023-02-01T02:09:29;2.80;99.90
68354;DHT22;55274;43.060;25.618;2023-02-01T02:11:55;2.80;99.90
68354;DHT22;55274;43.060;25.618;2023-02-01T02:14:22;2.80;99.90
68354;DHT22;55274;43.060;25.618;2023-02-01T02:23:12;2.80;99.90
68354;DHT22;55274;43.060;25.618;2023-02-01T02:34:40;2.70;99.90
68354;DHT22;55274;43.060;25.618;2023-02-01T02:45:21;2.70;99.90
68354;DHT22;55274;43.060;25.618;2023-02-01T02:48:17;2.60;99.90
68354;DHT22;55274;43.060;25.618;2023-02-01T02:56:29;2.60;99.90
68354;DHT22;55274;43.060;25.618;2023-02-01T02:59:16;2.60;99.90
68354;DHT22;55274;43.060;25.618;2023-02-01T03:02:01;2.60;99.90
68354;DHT22;55274;43.060;25.618;2023-02-01T03:04:45;2.60;99.90
68354;DHT22;55274;43.060;25.618;2023-02-01T03:13:04;2.70;99.90
68354;DHT22;55274;43.060;25.618;2023-02-01T03:15:36;2.70;99.90
68354;DHT22;55274;43.060;25.618;2023-02-01T03:18:06;2.70;99.90
68354;DHT22;55274;43.060;25.618;2023-02-01T03:20:38;2.70;99.90
68354;DHT22;55274;43.060;25.618;2023-02-01T03:23:06;2.70;99.90
68354;DHT22;55274;43.060;25.618;2023-02-01T03:25:33;2.70;99.90
68354;DHT22;55274;43.060;25.618;2023-02-01T03:28:04;2.70;99.90
68354;DHT22;55274;43.060;25.618;2023-02-01T03:30:38;2.70;99.90
68354;DHT22;55274;43.060;25.618;2023-02-01T03:33:10;2.70;99.90
68354;DHT22;55274;43.060;25.618;2023-02-01T03:44:32;2.70;99.90
68354;DHT22;55274;43.060;25.618;2023-02-01T03:49:49;2.70;99.90
68354;DHT22;55274;43.060;25.618;2023-02-01T03:52:29;2.70;99.90
68354;DHT22;55274;43.060;25.618;2023-02-01T03:54:57;2.70;99.90
68354;DHT22;55274;43.060;25.618;2023-02-01T03:57:29;2.70;99.90
68354;DHT22;55274;43.060;25.618;2023-02-01T04:00:24;2.70;99.90
68354;DHT22;55274;43.060;25.618;2023-02-01T04:02:50;2.60;99.90
68354;DHT22;55274;43.060;25.618;2023-02-01T04:05:16;2.60;99.90
68354;DHT22;55274;43.060;25.618;2023-02-01T04:07:42;2.60;99.90
68354;DHT22;55274;43.060;25.618;2023-02-01T04:10:09;2.60;99.90
68354;DHT22;55274;43.060;25.618;2023-02-01T04:12:35;2.60;99.90
68354;DHT22;55274;43.060;25.618;2023-02-01T04:15:01;2.60;99.90
68354;DHT22;55274;43.060;25.618;2023-02-01T04:17:27;2.60;99.90
68354;DHT22;55274;43.060;25.618;2023-02-01T04:19:53;2.60;99.90
68354;DHT22;55274;43.060;25.618;2023-02-01T04:22:18;2.50;99.90
68354;DHT22;55274;43.060;25.618;2023-02-01T04:24:44;2.50;99.90
68354;DHT22;55274;43.060;25.618;2023-02-01T04:27:10;2.40;99.90
68354;DHT22;55274;43.060;25.618;2023-02-01T04:29:36;2.40;99.90
68354;DHT22;55274;43.060;25.618;2023-02-01T04:32:01;2.40;99.90
68354;DHT22;55274;43.060;25.618;2023-02-01T04:34:28;2.40;99.90
68354;DHT22;55274;43.060;25.618;2023-02-01T04:36:54;2.30;99.90
68354;DHT22;55274;43.060;25.618;2023-02-01T04:39:19;2.30;99.90
68354;DHT22;55274;43.060;25.618;2023-02-01T04:41:45;2.30;99.90
68354;DHT22;55274;43.060;25.618;2023-02-01T04:44:14;2.30;99.90
68354;DHT22;55274;43.060;25.618;2023-02-01T04:46:40;2.30;99.90
68354;DHT22;55274;43.060;25.618;2023-02-01T04:49:06;2.20;99.90
68354;DHT22;55274;43.060;25.618;2023-02-01T04:51:32;2.20;99.90
68354;DHT22;55274;43.060;25.618;2023-02-01T04:53:57;2.20;99.90
68354;DHT22;55274;43.060;25.618;2023-02-01T04:56:23;2.10;99.90
68354;DHT22;55274;43.060;25.618;2023-02-01T04:58:49;2.10;99.90
68354;DHT22;55274;43.060;25.618;2023-02-01T05:01:15;2.10;99.90
68354;DHT22;55274;43.060;25.618;2023-02-01T05:03:40;2.00;99.90
68354;DHT22;55274;43.060;25.618;2023-02-01T05:06:06;1.90;99.90
68354;DHT22;55274;43.060;25.618;2023-02-01T05:08:32;1.80;99.90
68354;DHT22;55274;43.060;25.618;2023-02-01T05:10:58;1.70;99.90
68354;DHT22;55274;43.060;25.618;2023-02-01T05:13:25;1.70;99.90
68354;DHT22;55274;43.060;25.618;2023-02-01T05:16:09;1.70;99.90
68354;DHT22;55274;43.060;25.618;2023-02-01T05:18:35;1.70;99.90
68354;DHT22;55274;43.060;25.618;2023-02-01T05:21:00;1.60;99.90
68354;DHT22;55274;43.060;25.618;2023-02-01T05:23:27;1.60;99.90
68354;DHT22;55274;43.060;25.618;2023-02-01T05:25:58;1.50;99.90
68354;DHT22;55274;43.060;25.618;2023-02-01T05:28:25;1.50;99.90
68354;DHT22;55274;43.060;25.618;2023-02-01T05:30:51;1.40;99.90
68354;DHT22;55274;43.060;25.618;2023-02-01T05:33:17;1.30;99.90
68354;DHT22;55274;43.060;25.618;2023-02-01T05:35:43;1.30;99.90
68354;DHT22;55274;43.060;25.618;2023-02-01T05:38:09;1.20;99.90
68354;DHT22;55274;43.060;25.618;2023-02-01T05:40:34;1.10;99.90
68354;DHT22;55274;43.060;25.618;2023-02-01T05:43:00;1.10;99.90
68354;DHT22;55274;43.060;25.618;2023-02-01T05:45:26;1.10;99.90
68354;DHT22;55274;43.060;25.618;2023-02-01T05:47:51;1.00;99.90
68354;DHT22;55274;43.060;25.618;2023-02-01T05:50:17;1.00;99.90
68354;DHT22;55274;43.060;25.618;2023-02-01T05:52:43;1.00;99.90
68354;DHT22;55274;43.060;25.618;2023-02-01T05:55:09;0.90;99.90
68354;DHT22;55274;43.060;25.618;2023-02-01T05:57:35;0.90;99.90
68354;DHT22;55274;43.060;25.618;2023-02-01T06:00:01;0.80;99.90
68354;DHT22;55274;43.060;25.618;2023-02-01T06:02:27;0.80;99.90
68354;DHT22;55274;43.060;25.618;2023-02-01T06:04:53;0.80;99.90
68354;DHT22;55274;43.060;25.618;2023-02-01T06:07:18;0.80;99.90
68354;DHT22;55274;43.060;25.618;2023-02-01T06:09:44;0.70;99.90
68354;DHT22;55274;43.060;25.618;2023-02-01T06:12:10;0.70;99.90
68354;DHT22;55274;43.060;25.618;2023-02-01T06:14:36;0.70;99.90
68354;DHT22;55274;43.060;25.618;2023-02-01T06:17:02;0.70;99.90
68354;DHT22;55274;43.060;25.618;2023-02-01T06:19:28;0.70;99.90
68354;DHT22;55274;43.060;25.618;2023-02-01T06:21:54;0.70;99.90
68354;DHT22;55274;43.060;25.618;2023-02-01T06:24:20;0.80;99.90
68354;DHT22;55274;43.060;25.618;2023-02-01T06:26:45;0.70;99.90
68354;DHT22;55274;43.060;25.618;2023-02-01T06:29:12;0.80;99.90
68354;DHT22;55274;43.060;25.618;2023-02-01T06:31:38;0.80;99.90
68354;DHT22;55274;43.060;25.618;2023-02-01T06:34:05;0.80;99.90
68354;DHT22;55274;43.060;25.618;2023-02-01T06:36:30;0.80;99.90
68354;DHT22;55274;43.060;25.618;2023-02-01T06:38:56;0.90;99.90
68354;DHT22;55274;43.060;25.618;2023-02-01T06:41:23;1.00;99.90
68354;DHT22;55274;43.060;25.618;2023-02-01T06:43:49;1.10;99.90
68354;DHT22;55274;43.060;25.618;2023-02-01T06:46:14;1.20;99.90
68354;DHT22;55274;43.060;25.618;2023-02-01T06:48:40;1.10;99.90
68354;DHT22;55274;43.060;25.618;2023-02-01T06:51:26;1.20;99.90
68354;DHT22;55274;43.060;25.618;2023-02-01T06:53:52;1.30;99.90
68354;DHT22;55274;43.060;25.618;2023-02-01T06:56:18;1.40;99.90
68354;DHT22;55274;43.060;25.618;2023-02-01T06:58:44;1.50;99.90
68354;DHT22;55274;43.060;25.618;2023-02-01T07:01:10;1.60;99.90
68354;DHT22;55274;43.060;25.618;2023-02-01T07:03:36;1.70;99.90
68354;DHT22;55274;43.060;25.618;2023-02-01T07:06:02;1.70;99.90
68354;DHT22;55274;43.060;25.618;2023-02-01T07:08:31;1.80;99.90
68354;DHT22;55274;43.060;25.618;2023-02-01T07:11:02;1.80;99.90
68354;DHT22;55274;43.060;25.618;2023-02-01T07:13:28;1.90;99.90
68354;DHT22;55274;43.060;25.618;2023-02-01T07:15:54;2.00;99.90
68354;DHT22;55274;43.060;25.618;2023-02-01T07:18:19;2.10;99.90
68354;DHT22;55274;43.060;25.618;2023-02-01T07:20:50;2.20;99.90
68354;DHT22;55274;43.060;25.618;2023-02-01T07:23:16;2.30;99.90
68354;DHT22;55274;43.060;25.618;2023-02-01T07:25:42;2.50;99.90
68354;DHT22;55274;43.060;25.618;2023-02-01T07:28:08;2.60;99.90
68354;DHT22;55274;43.060;25.618;2023-02-01T07:30:33;2.70;99.90
68354;DHT22;55274;43.060;25.618;2023-02-01T07:32:59;2.80;99.90
68354;DHT22;55274;43.060;25.618;2023-02-01T07:35:27;2.90;99.90
68354;DHT22;55274;43.060;25.618;2023-02-01T07:37:53;3.00;99.90
68354;DHT22;55274;43.060;25.618;2023-02-01T07:40:19;3.10;99.90
68354;DHT22;55274;43.060;25.618;2023-02-01T07:42:50;3.20;99.90
68354;DHT22;55274;43.060;25.618;2023-02-01T07:45:16;3.20;99.90
68354;DHT22;55274;43.060;25.618;2023-02-01T07:47:41;3.40;99.90
68354;DHT22;55274;43.060;25.618;2023-02-01T07:50:08;3.50;99.90
68354;DHT22;55274;43.060;25.618;2023-02-01T07:52:34;3.50;99.90
68354;DHT22;55274;43.060;25.618;2023-02-01T07:54:59;3.60;99.90
68354;DHT22;55274;43.060;25.618;2023-02-01T07:57:25;3.70;99.90
68354;DHT22;55274;43.060;25.618;2023-02-01T07:59:51;3.80;99.90
68354;DHT22;55274;43.060;25.618;2023-02-01T08:02:37;4.00;99.90
68354;DHT22;55274;43.060;25.618;2023-02-01T08:05:03;4.50;99.90
68354;DHT22;55274;43.060;25.618;2023-02-01T08:07:30;4.60;99.90
68354;DHT22;55274;43.060;25.618;2023-02-01T08:09:56;4.80;99.90
68354;DHT22;55274;43.060;25.618;2023-02-01T08:12:21;5.10;99.90
68354;DHT22;55274;43.060;25.618;2023-02-01T08:14:47;5.50;99.90
68354;DHT22;55274;43.060;25.618;2023-02-01T08:17:13;5.70;99.90
68354;DHT22;55274;43.060;25.618;2023-02-01T08:19:38;5.90;99.90
68354;DHT22;55274;43.060;25.618;2023-02-01T08:22:04;6.20;98.50
68354;DHT22;55274;43.060;25.618;2023-02-01T08:24:33;6.40;96.20
68354;DHT22;55274;43.060;25.618;2023-02-01T08:27:01;6.60;95.20
68354;DHT22;55274;43.060;25.618;2023-02-01T08:29:27;6.70;92.80
68354;DHT22;55274;43.060;25.618;2023-02-01T08:31:53;6.50;91.70
68354;DHT22;55274;43.060;25.618;2023-02-01T08:34:19;6.60;92.10
68354;DHT22;55274;43.060;25.618;2023-02-01T08:36:45;6.80;90.20
68354;DHT22;55274;43.060;25.618;2023-02-01T08:39:11;7.00;89.40
68354;DHT22;55274;43.060;25.618;2023-02-01T08:41:37;7.10;88.90
68354;DHT22;55274;43.060;25.618;2023-02-01T08:44:03;6.90;87.70
68354;DHT22;55274;43.060;25.618;2023-02-01T08:46:29;6.50;88.40
68354;DHT22;55274;43.060;25.618;2023-02-01T08:48:55;6.70;89.20
68354;DHT22;55274;43.060;25.618;2023-02-01T08:51:22;6.60;88.70
68354;DHT22;55274;43.060;25.618;2023-02-01T08:53:49;6.50;88.30
68354;DHT22;55274;43.060;25.618;2023-02-01T08:56:16;6.50;89.10
68354;DHT22;55274;43.060;25.618;2023-02-01T08:58:42;6.40;89.40
68354;DHT22;55274;43.060;25.618;2023-02-01T09:01:13;6.30;88.80
68354;DHT22;55274;43.060;25.618;2023-02-01T09:03:40;6.30;89.80
68354;DHT22;55274;43.060;25.618;2023-02-01T09:06:08;6.30;89.60
68354;DHT22;55274;43.060;25.618;2023-02-01T09:08:35;6.30;90.30
68354;DHT22;55274;43.060;25.618;2023-02-01T09:11:03;6.30;89.90
68354;DHT22;55274;43.060;25.618;2023-02-01T09:13:29;6.10;89.50
68354;DHT22;55274;43.060;25.618;2023-02-01T09:15:55;6.20;90.00
68354;DHT22;55274;43.060;25.618;2023-02-01T09:18:21;6.20;90.40
68354;DHT22;55274;43.060;25.618;2023-02-01T09:20:47;6.30;90.80
68354;DHT22;55274;43.060;25.618;2023-02-01T09:23:13;6.30;89.60
68354;DHT22;55274;43.060;25.618;2023-02-01T09:25:39;6.30;89.40
68354;DHT22;55274;43.060;25.618;2023-02-01T09:28:05;6.30;90.20
68354;DHT22;55274;43.060;25.618;2023-02-01T09:30:35;6.30;90.10
68354;DHT22;55274;43.060;25.618;2023-02-01T09:33:02;6.50;90.20
68354;DHT22;55274;43.060;25.618;2023-02-01T09:35:28;6.50;90.60
68354;DHT22;55274;43.060;25.618;2023-02-01T09:37:54;6.60;90.20
68354;DHT22;55274;43.060;25.618;2023-02-01T09:40:20;6.60;90.00
68354;DHT22;55274;43.060;25.618;2023-02-01T09:45:55;6.80;88.70
68354;DHT22;55274;43.060;25.618;2023-02-01T09:48:29;6.90;88.50
68354;DHT22;55274;43.060;25.618;2023-02-01T09:50:58;7.10;87.20
68354;DHT22;55274;43.060;25.618;2023-02-01T09:53:33;7.30;85.20
68354;DHT22;55274;43.060;25.618;2023-02-01T09:56:06;7.50;85.80
68354;DHT22;55274;43.060;25.618;2023-02-01T09:58:41;8.20;82.30
68354;DHT22;55274;43.060;25.618;2023-02-01T10:01:21;8.40;79.90
68354;DHT22;55274;43.060;25.618;2023-02-01T10:03:49;8.20;81.80
68354;DHT22;55274;43.060;25.618;2023-02-01T10:06:38;8.20;80.90
68354;DHT22;55274;43.060;25.618;2023-02-01T10:09:30;8.10;80.40
68354;DHT22;55274;43.060;25.618;2023-02-01T10:15:49;8.50;78.40
68354;DHT22;55274;43.060;25.618;2023-02-01T10:18:01;8.60;79.60
68354;DHT22;55274;43.060;25.618;2023-02-01T10:20:44;8.30;78.90
68354;DHT22;55274;43.060;25.618;2023-02-01T10:28:17;8.90;76.70
68354;DHT22;55274;43.060;25.618;2023-02-01T10:30:46;9.00;76.90
68354;DHT22;55274;43.060;25.618;2023-02-01T10:33:39;9.10;76.70
68354;DHT22;55274;43.060;25.618;2023-02-01T10:36:16;9.20;76.40
68354;DHT22;55274;43.060;25.618;2023-02-01T10:38:45;9.10;74.30
68354;DHT22;55274;43.060;25.618;2023-02-01T10:43:37;9.20;74.00
68354;DHT22;55274;43.060;25.618;2023-02-01T10:46:05;9.50;73.90
68354;DHT22;55274;43.060;25.618;2023-02-01T10:48:32;9.60;72.50
68354;DHT22;55274;43.060;25.618;2023-02-01T10:51:00;9.90;72.70
68354;DHT22;55274;43.060;25.618;2023-02-01T10:53:58;9.90;72.30
68354;DHT22;55274;43.060;25.618;2023-02-01T10:56:24;10.00;70.90
68354;DHT22;55274;43.060;25.618;2023-02-01T10:58:50;10.30;71.90
68354;DHT22;55274;43.060;25.618;2023-02-01T11:01:44;10.10;69.00
68354;DHT22;55274;43.060;25.618;2023-02-01T11:04:12;9.60;69.10
68354;DHT22;55274;43.060;25.618;2023-02-01T11:07:06;9.30;70.00
68354;DHT22;55274;43.060;25.618;2023-02-01T11:09:39;9.20;71.30
68354;DHT22;55274;43.060;25.618;2023-02-01T11:12:07;9.10;71.30
68354;DHT22;55274;43.060;25.618;2023-02-01T11:14:47;9.30;71.80
68354;DHT22;55274;43.060;25.618;2023-02-01T11:17:26;9.30;71.30
68354;DHT22;55274;43.060;25.618;2023-02-01T11:19:59;9.50;71.30
68354;DHT22;55274;43.060;25.618;2023-02-01T11:22:26;9.70;70.40
68354;DHT22;55274;43.060;25.618;2023-02-01T11:24:54;9.60;70.50
68354;DHT22;55274;43.060;25.618;2023-02-01T11:27:22;9.50;71.20
68354;DHT22;55274;43.060;25.618;2023-02-01T11:29:54;9.60;71.30
68354;DHT22;55274;43.060;25.618;2023-02-01T11:32:23;9.40;70.60
68354;DHT22;55274;43.060;25.618;2023-02-01T11:34:59;9.40;70.40
68354;DHT22;55274;43.060;25.618;2023-02-01T11:37:38;9.50;71.20
68354;DHT22;55274;43.060;25.618;2023-02-01T11:40:23;9.80;70.20
68354;DHT22;55274;43.060;25.618;2023-02-01T11:45:59;10.00;69.70
68354;DHT22;55274;43.060;25.618;2023-02-01T11:48:30;10.00;68.60
68354;DHT22;55274;43.060;25.618;2023-02-01T12:16:10;8.90;69.00
68354;DHT22;55274;43.060;25.618;2023-02-01T12:24:41;9.20;68.70
68354;DHT22;55274;43.060;25.618;2023-02-01T12:27:36;9.30;69.60
68354;DHT22;55274;43.060;25.618;2023-02-01T12:38:50;9.40;68.90
68354;DHT22;55274;43.060;25.618;2023-02-01T12:52:58;9.00;70.30
68354;DHT22;55274;43.060;25.618;2023-02-01T12:55:36;8.90;69.80
68354;DHT22;55274;43.060;25.618;2023-02-01T12:58:14;8.90;69.90
68354;DHT22;55274;43.060;25.618;2023-02-01T13:01:05;8.80;69.90
68354;DHT22;55274;43.060;25.618;2023-02-01T13:11:31;8.90;71.70
68354;DHT22;55274;43.060;25.618;2023-02-01T13:15:09;9.00;70.20
68354;DHT22;55274;43.060;25.618;2023-02-01T13:17:32;9.00;71.10
68354;DHT22;55274;43.060;25.618;2023-02-01T13:20:06;9.00;70.50
68354;DHT22;55274;43.060;25.618;2023-02-01T13:22:40;8.90;70.10
68354;DHT22;55274;43.060;25.618;2023-02-01T13:27:41;8.90;70.00
68354;DHT22;55274;43.060;25.618;2023-02-01T13:44:05;8.90;71.90
68354;DHT22;55274;43.060;25.618;2023-02-01T13:46:44;8.90;71.30
68354;DHT22;55274;43.060;25.618;2023-02-01T13:49:26;9.00;71.20
68354;DHT22;55274;43.060;25.618;2023-02-01T13:51:54;9.00;70.80
68354;DHT22;55274;43.060;25.618;2023-02-01T13:54:32;9.00;70.50
68354;DHT22;55274;43.060;25.618;2023-02-01T13:57:00;9.00;71.40
68354;DHT22;55274;43.060;25.618;2023-02-01T13:59:50;9.10;70.80
68354;DHT22;55274;43.060;25.618;2023-02-01T14:05:12;9.10;71.40
68354;DHT22;55274;43.060;25.618;2023-02-01T14:13:36;9.10;70.80
68354;DHT22;55274;43.060;25.618;2023-02-01T14:23:54;8.90;70.40
68354;DHT22;55274;43.060;25.618;2023-02-01T14:26:24;8.80;70.70
68354;DHT22;55274;43.060;25.618;2023-02-01T14:28:58;8.70;70.40
68354;DHT22;55274;43.060;25.618;2023-02-01T14:31:40;8.60;70.20
68354;DHT22;55274;43.060;25.618;2023-02-01T14:34:20;8.50;69.70
68354;DHT22;55274;43.060;25.618;2023-02-01T14:37:07;8.50;69.30
68354;DHT22;55274;43.060;25.618;2023-02-01T15:00:59;8.00;70.80
68354;DHT22;55274;43.060;25.618;2023-02-01T15:11:54;7.70;72.80
68354;DHT22;55274;43.060;25.618;2023-02-01T15:14:20;7.60;72.70
68354;DHT22;55274;43.060;25.618;2023-02-01T15:16:46;7.60;73.20
68354;DHT22;55274;43.060;25.618;2023-02-01T15:19:21;7.50;72.80
68354;DHT22;55274;43.060;25.618;2023-02-01T15:21:50;7.50;73.60
68354;DHT22;55274;43.060;25.618;2023-02-01T15:24:26;7.40;73.50
68354;DHT22;55274;43.060;25.618;2023-02-01T15:26:53;7.30;73.00
68354;DHT22;55274;43.060;25.618;2023-02-01T15:29:23;7.20;72.90
68354;DHT22;55274;43.060;25.618;2023-02-01T15:31:53;7.20;73.40
68354;DHT22;55274;43.060;25.618;2023-02-01T15:34:20;7.20;73.80
68354;DHT22;55274;43.060;25.618;2023-02-01T15:36:47;7.10;73.50
68354;DHT22;55274;43.060;25.618;2023-02-01T15:39:24;7.00;73.70
68354;DHT22;55274;43.060;25.618;2023-02-01T15:42:08;7.00;74.20
68354;DHT22;55274;43.060;25.618;2023-02-01T15:44:40;6.90;74.10
68354;DHT22;55274;43.060;25.618;2023-02-01T15:47:16;6.80;74.50
68354;DHT22;55274;43.060;25.618;2023-02-01T15:49:44;6.80;74.10
68354;DHT22;55274;43.060;25.618;2023-02-01T15:54:51;6.60;75.10
68354;DHT22;55274;43.060;25.618;2023-02-01T15:57:27;6.60;75.30
68354;DHT22;55274;43.060;25.618;2023-02-01T16:00:00;6.50;75.30
68354;DHT22;55274;43.060;25.618;2023-02-01T16:03:20;6.40;75.00
68354;DHT22;55274;43.060;25.618;2023-02-01T16:05:43;6.30;75.10
68354;DHT22;55274;43.060;25.618;2023-02-01T16:08:21;6.30;75.60
68354;DHT22;55274;43.060;25.618;2023-02-01T16:10:50;6.20;76.00
68354;DHT22;55274;43.060;25.618;2023-02-01T16:13:17;6.10;75.50
68354;DHT22;55274;43.060;25.618;2023-02-01T16:15:44;6.10;75.90
68354;DHT22;55274;43.060;25.618;2023-02-01T16:18:13;6.00;76.60
68354;DHT22;55274;43.060;25.618;2023-02-01T16:20:41;6.00;76.20
68354;DHT22;55274;43.060;25.618;2023-02-01T16:23:08;5.90;76.70
68354;DHT22;55274;43.060;25.618;2023-02-01T16:25:35;5.90;77.10
68354;DHT22;55274;43.060;25.618;2023-02-01T16:28:01;5.80;77.60
68354;DHT22;55274;43.060;25.618;2023-02-01T16:30:26;5.70;78.10
68354;DHT22;55274;43.060;25.618;2023-02-01T16:32:57;5.60;78.50
68354;DHT22;55274;43.060;25.618;2023-02-01T16:35:32;5.50;79.60
68354;DHT22;55274;43.060;25.618;2023-02-01T16:38:05;5.30;80.90
68354;DHT22;55274;43.060;25.618;2023-02-01T16:40:38;5.20;80.90
68354;DHT22;55274;43.060;25.618;2023-02-01T16:43:18;5.10;81.30
68354;DHT22;55274;43.060;25.618;2023-02-01T16:45:46;5.00;82.00
68354;DHT22;55274;43.060;25.618;2023-02-01T16:48:25;4.90;82.90
68354;DHT22;55274;43.060;25.618;2023-02-01T16:50:56;4.80;83.80
68354;DHT22;55274;43.060;25.618;2023-02-01T16:53:23;4.70;84.10
68354;DHT22;55274;43.060;25.618;2023-02-01T16:55:50;4.60;84.90
68354;DHT22;55274;43.060;25.618;2023-02-01T16:58:18;4.60;86.20
68354;DHT22;55274;43.060;25.618;2023-02-01T17:00:45;4.50;87.80
68354;DHT22;55274;43.060;25.618;2023-02-01T17:03:11;4.50;88.10
68354;DHT22;55274;43.060;25.618;2023-02-01T17:05:46;4.40;90.70
68354;DHT22;55274;43.060;25.618;2023-02-01T17:08:16;4.30;91.80
68354;DHT22;55274;43.060;25.618;2023-02-01T17:10:44;4.30;92.20
68354;DHT22;55274;43.060;25.618;2023-02-01T17:13:15;4.20;92.30
68354;DHT22;55274;43.060;25.618;2023-02-01T17:15:44;4.10;92.40
68354;DHT22;55274;43.060;25.618;2023-02-01T17:18:14;4.10;92.60
68354;DHT22;55274;43.060;25.618;2023-02-01T17:20:41;4.00;93.70
68354;DHT22;55274;43.060;25.618;2023-02-01T17:23:07;3.90;92.90
68354;DHT22;55274;43.060;25.618;2023-02-01T17:25:39;3.80;93.00
68354;DHT22;55274;43.060;25.618;2023-02-01T17:28:04;3.70;93.60
68354;DHT22;55274;43.060;25.618;2023-02-01T17:30:31;3.60;94.70
68354;DHT22;55274;43.060;25.618;2023-02-01T17:32:57;3.50;94.80
68354;DHT22;55274;43.060;25.618;2023-02-01T17:35:25;3.50;95.30
68354;DHT22;55274;43.060;25.618;2023-02-01T17:37:52;3.50;95.20
68354;DHT22;55274;43.060;25.618;2023-02-01T17:40:19;3.40;95.10
68354;DHT22;55274;43.060;25.618;2023-02-01T17:42:44;3.40;95.90
68354;DHT22;55274;43.060;25.618;2023-02-01T17:45:35;3.30;96.10
68354;DHT22;55274;43.060;25.618;2023-02-01T17:48:05;3.20;96.50
68354;DHT22;55274;43.060;25.618;2023-02-01T17:50:35;3.10;96.50
68354;DHT22;55274;43.060;25.618;2023-02-01T17:53:01;3.00;96.60
68354;DHT22;55274;43.060;25.618;2023-02-01T17:55:35;3.00;96.80
68354;DHT22;55274;43.060;25.618;2023-02-01T17:58:01;2.90;97.20
68354;DHT22;55274;43.060;25.618;2023-02-01T18:00:27;2.80;97.50
68354;DHT22;55274;43.060;25.618;2023-02-01T18:02:53;2.80;98.30
68354;DHT22;55274;43.060;25.618;2023-02-01T18:05:41;2.80;98.80
68354;DHT22;55274;43.060;25.618;2023-02-01T18:08:09;2.70;99.00
68354;DHT22;55274;43.060;25.618;2023-02-01T18:10:35;2.70;99.00
68354;DHT22;55274;43.060;25.618;2023-02-01T18:13:04;2.50;99.10
68354;DHT22;55274;43.060;25.618;2023-02-01T18:15:30;2.50;99.40
68354;DHT22;55274;43.060;25.618;2023-02-01T18:17:57;2.40;99.50
68354;DHT22;55274;43.060;25.618;2023-02-01T18:20:24;2.40;99.90
68354;DHT22;55274;43.060;25.618;2023-02-01T18:22:55;2.30;99.90
68354;DHT22;55274;43.060;25.618;2023-02-01T18:25:26;2.20;99.90
68354;DHT22;55274;43.060;25.618;2023-02-01T18:27:54;2.20;99.90
68354;DHT22;55274;43.060;25.618;2023-02-01T18:30:22;2.20;99.90
68354;DHT22;55274;43.060;25.618;2023-02-01T18:32:48;2.20;99.90
68354;DHT22;55274;43.060;25.618;2023-02-01T18:35:23;2.10;99.90
68354;DHT22;55274;43.060;25.618;2023-02-01T18:37:50;2.00;99.90
68354;DHT22;55274;43.060;25.618;2023-02-01T18:40:27;2.00;99.90
68354;DHT22;55274;43.060;25.618;2023-02-01T18:42:54;2.00;99.90
68354;DHT22;55274;43.060;25.618;2023-02-01T18:45:36;1.90;99.90
68354;DHT22;55274;43.060;25.618;2023-02-01T18:48:04;1.90;99.90
68354;DHT22;55274;43.060;25.618;2023-02-01T18:50:33;1.80;99.90
68354;DHT22;55274;43.060;25.618;2023-02-01T18:53:01;1.80;99.90
68354;DHT22;55274;43.060;25.618;2023-02-01T18:55:28;1.80;99.90